createdAt,value
2023-05-17T00:01:03.750Z,5.53
2023-05-17T00:03:32.761Z,5.32
2023-05-17T00:06:01.955Z,4.80
2023-05-17T00:08:30.967Z,5.60
2023-05-17T00:11:00.116Z,5.20
2023-05-17T00:13:30.920Z,4.85
2023-05-17T00:15:59.952Z,5.18
2023-05-17T00:18:29.143Z,4.97
2023-05-17T00:20:58.315Z,5.00
2023-05-17T00:23:27.472Z,4.97
2023-05-17T00:25:56.569Z,4.65
2023-05-17T00:28:25.621Z,5.05
2023-05-17T00:30:56.299Z,4.78
2023-05-17T00:33:25.362Z,4.25
2023-05-17T00:35:54.567Z,4.43
2023-05-17T00:38:23.632Z,4.72
2023-05-17T00:40:54.901Z,4.82
2023-05-17T00:43:23.971Z,4.28
2023-05-17T00:45:53.093Z,4.90
2023-05-17T00:48:26.582Z,4.35
2023-05-17T00:50:56.949Z,4.60
2023-05-17T00:53:26.780Z,4.45
2023-05-17T00:55:56.708Z,4.32
2023-05-17T00:58:26.333Z,4.10
2023-05-17T01:00:55.556Z,4.10
2023-05-17T01:03:26.663Z,4.63
2023-05-17T01:05:56.407Z,4.05
2023-05-17T01:08:25.543Z,4.10
2023-05-17T01:11:02.970Z,4.15
2023-05-17T01:13:37.993Z,4.03
2023-05-17T01:16:17.449Z,3.88
2023-05-17T01:18:54.364Z,4.55
2023-05-17T01:21:38.225Z,4.03
2023-05-17T01:24:26.831Z,4.45
2023-05-17T01:27:00.466Z,4.07
2023-05-17T01:29:31.286Z,4.15
2023-05-17T01:32:03.580Z,4.70
2023-05-17T01:34:32.639Z,4.40
2023-05-17T01:37:01.707Z,4.00
2023-05-17T01:39:30.893Z,3.70
2023-05-17T01:42:08.153Z,3.95
2023-05-17T01:44:44.604Z,4.43
2023-05-17T01:47:17.535Z,4.07
2023-05-17T01:49:50.021Z,4.00
2023-05-17T01:52:26.339Z,3.97
2023-05-17T01:55:01.627Z,3.90
2023-05-17T01:57:38.395Z,3.97
2023-05-17T02:00:11.732Z,4.05
2023-05-17T02:02:40.844Z,4.40
2023-05-17T02:05:10.497Z,4.53
2023-05-17T02:07:40.443Z,4.00
2023-05-17T02:10:10.403Z,4.22
2023-05-17T02:12:41.150Z,4.15
2023-05-17T02:15:12.834Z,4.50
2023-05-17T02:17:42.107Z,4.40
2023-05-17T02:20:12.619Z,4.57
2023-05-17T02:22:41.701Z,4.30
2023-05-17T02:25:11.438Z,4.13
2023-05-17T02:27:42.212Z,4.30
2023-05-17T02:30:11.810Z,4.15
2023-05-17T02:32:41.097Z,4.65
2023-05-17T02:35:10.831Z,4.38
2023-05-17T02:37:39.889Z,4.45
2023-05-17T02:40:11.408Z,4.10
2023-05-17T02:42:42.126Z,4.10
2023-05-17T02:45:11.848Z,4.40
2023-05-17T02:47:41.014Z,4.63
2023-05-17T02:50:11.475Z,4.70
2023-05-17T02:52:40.541Z,3.85
2023-05-17T02:55:10.305Z,4.22
2023-05-17T02:57:41.198Z,3.75
2023-05-17T03:00:11.447Z,5.35
2023-05-17T03:02:40.872Z,4.32
2023-05-17T03:05:11.192Z,3.95
2023-05-17T03:07:40.944Z,4.30
2023-05-17T03:10:10.560Z,3.90
2023-05-17T03:12:41.331Z,3.60
2023-05-17T03:15:11.127Z,3.55
2023-05-17T03:17:40.318Z,4.22
2023-05-17T03:20:10.444Z,4.00
2023-05-17T03:22:39.501Z,3.95
2023-05-17T03:25:09.092Z,3.97
2023-05-17T03:27:38.138Z,3.75
2023-05-17T03:30:10.191Z,3.80
2023-05-17T03:32:41.460Z,4.20
2023-05-17T03:35:11.131Z,3.83
2023-05-17T03:37:40.144Z,4.05
2023-05-17T03:40:10.050Z,4.13
2023-05-17T03:42:39.753Z,3.60
2023-05-17T03:45:11.412Z,3.70
2023-05-17T03:47:40.489Z,3.70
2023-05-17T03:50:10.728Z,4.00
2023-05-17T03:52:40.206Z,3.85
2023-05-17T03:55:10.294Z,4.47
2023-05-17T03:57:39.371Z,3.83
2023-05-17T04:00:11.822Z,4.15
2023-05-17T04:02:41.201Z,4.20
2023-05-17T04:05:10.658Z,4.13
2023-05-17T04:07:39.819Z,4.00
2023-05-17T04:10:09.452Z,4.05
2023-05-17T04:12:38.626Z,4.55
2023-05-17T04:15:08.670Z,4.00
2023-05-17T04:17:39.412Z,3.88
2023-05-17T04:20:09.152Z,4.15
2023-05-17T04:22:38.295Z,3.83
2023-05-17T04:25:09.160Z,4.43
2023-05-17T04:27:38.219Z,4.38
2023-05-17T04:30:09.941Z,4.25
2023-05-17T04:32:40.626Z,4.60
2023-05-17T04:35:10.202Z,4.15
2023-05-17T04:37:41.178Z,4.60
2023-05-17T04:40:11.220Z,5.18
2023-05-17T04:42:40.332Z,4.40
2023-05-17T04:45:10.257Z,4.38
2023-05-17T04:47:41.040Z,4.43
2023-05-17T04:50:10.604Z,5.18
2023-05-17T04:52:39.729Z,4.50
2023-05-17T04:55:09.543Z,4.75
2023-05-17T04:57:38.767Z,4.93
2023-05-17T05:00:11.145Z,5.03
2023-05-17T05:02:42.097Z,4.70
2023-05-17T05:05:12.291Z,4.80
2023-05-17T05:07:41.800Z,4.88
2023-05-17T05:10:11.218Z,5.20
2023-05-17T05:12:40.406Z,5.07
2023-05-17T05:15:10.598Z,5.40
2023-05-17T05:17:41.471Z,5.30
2023-05-17T05:20:11.398Z,5.03
2023-05-17T05:22:40.464Z,5.70
2023-05-17T05:25:10.536Z,5.30
2023-05-17T05:27:39.645Z,5.75
2023-05-17T05:30:09.822Z,5.05
2023-05-17T05:32:40.539Z,5.47
2023-05-17T05:35:10.554Z,5.80
2023-05-17T05:37:39.595Z,5.57
2023-05-17T05:40:10.033Z,6.07
2023-05-17T05:42:39.113Z,5.65
2023-05-17T05:45:09.191Z,5.40
2023-05-17T05:47:38.361Z,5.32
2023-05-17T05:50:10.987Z,5.93
2023-05-17T05:52:39.988Z,5.63
2023-05-17T05:55:09.866Z,6.25
2023-05-17T05:57:38.907Z,6.28
2023-05-17T06:00:10.641Z,6.30
2023-05-17T06:02:39.846Z,6.13
2023-05-17T06:05:11.292Z,5.60
2023-05-17T06:07:40.359Z,5.97
2023-05-17T06:10:10.366Z,5.60
2023-05-17T06:12:39.583Z,5.90
2023-05-17T06:15:09.921Z,6.82
2023-05-17T06:17:39.146Z,6.80
2023-05-17T06:20:11.025Z,6.47
2023-05-17T06:22:40.088Z,6.25
2023-05-17T06:25:09.563Z,5.82
2023-05-17T06:27:38.787Z,6.15
2023-05-17T06:30:08.975Z,5.65
2023-05-17T06:32:38.033Z,6.38
2023-05-17T06:35:08.026Z,6.03
2023-05-17T06:37:38.733Z,6.45
2023-05-17T06:40:16.068Z,6.10
2023-05-17T06:42:45.939Z,6.50
2023-05-17T06:45:15.054Z,6.32
2023-05-17T06:47:44.139Z,6.93
2023-05-17T06:50:13.283Z,7.18
2023-05-17T06:52:44.272Z,6.72
2023-05-17T06:55:13.349Z,6.57
2023-05-17T06:57:42.380Z,6.47
2023-05-17T07:00:12.569Z,6.50
2023-05-17T07:02:41.798Z,6.82
2023-05-17T07:05:11.247Z,6.28
2023-05-17T07:07:40.380Z,6.55
2023-05-17T07:10:11.494Z,6.18
2023-05-17T07:12:40.512Z,6.10
2023-05-17T07:15:10.758Z,6.50
2023-05-17T07:17:40.188Z,6.40
2023-05-17T07:20:10.310Z,6.97
2023-05-17T07:22:39.462Z,6.57
2023-05-17T07:25:11.572Z,6.88
2023-05-17T07:27:40.595Z,6.60
2023-05-17T07:30:10.581Z,6.47
2023-05-17T07:32:39.681Z,7.10
2023-05-17T07:35:08.953Z,8.20
2023-05-17T07:37:38.104Z,7.55
2023-05-17T07:40:08.319Z,7.70
2023-05-17T07:42:39.066Z,8.15
2023-05-17T07:45:09.504Z,8.10
2023-05-17T07:47:38.698Z,8.63
2023-05-17T07:50:08.909Z,8.25
2023-05-17T07:52:37.952Z,7.85
2023-05-17T07:55:07.855Z,8.07
2023-05-17T07:57:38.921Z,8.38
2023-05-17T08:00:09.635Z,8.07
2023-05-17T08:02:38.724Z,8.70
2023-05-17T08:05:09.444Z,8.30
2023-05-17T08:07:40.687Z,8.95
2023-05-17T08:10:10.322Z,8.75
2023-05-17T08:12:41.299Z,9.20
2023-05-17T08:15:10.999Z,9.13
2023-05-17T08:17:40.075Z,8.85
2023-05-17T08:20:10.591Z,9.57
2023-05-17T08:22:39.739Z,9.77
2023-05-17T08:25:09.429Z,9.05
2023-05-17T08:27:40.603Z,10.23
2023-05-17T08:30:17.955Z,9.82
2023-05-17T08:32:50.905Z,9.70
2023-05-17T08:35:20.091Z,9.20
2023-05-17T08:37:49.078Z,10.05
2023-05-17T08:40:21.128Z,10.00
2023-05-17T08:42:53.624Z,9.98
2023-05-17T08:45:25.447Z,9.95
2023-05-17T08:47:55.423Z,10.82
2023-05-17T08:50:26.113Z,9.90
2023-05-17T08:52:55.909Z,10.68
2023-05-17T08:55:26.366Z,10.70
2023-05-17T08:57:57.902Z,11.25
2023-05-17T09:00:29.217Z,11.20
2023-05-17T09:02:58.956Z,11.07
2023-05-17T09:05:28.952Z,10.70
2023-05-17T09:07:58.953Z,10.88
2023-05-17T09:10:28.226Z,10.82
2023-05-17T09:12:59.622Z,12.35
2023-05-17T09:15:29.683Z,11.48
2023-05-17T09:17:59.664Z,12.80
2023-05-17T09:20:35.970Z,11.85
2023-05-17T09:25:34.926Z,12.50
2023-05-17T09:28:08.517Z,12.55
2023-05-17T09:30:41.220Z,12.18
2023-05-17T09:33:12.423Z,12.57
2023-05-17T09:35:44.756Z,12.55
2023-05-17T09:38:14.679Z,11.90
2023-05-17T09:40:44.929Z,12.38
2023-05-17T09:43:15.897Z,13.65
2023-05-17T09:45:44.942Z,13.07
2023-05-17T09:48:15.449Z,13.95
2023-05-17T09:50:48.782Z,14.13
2023-05-17T09:53:28.546Z,15.15
2023-05-17T09:55:59.472Z,14.75
2023-05-17T09:58:33.007Z,17.40
2023-05-17T10:01:04.840Z,15.60
2023-05-17T10:03:36.676Z,15.88
2023-05-17T10:06:09.944Z,15.45
2023-05-17T10:08:49.513Z,16.23
2023-05-17T10:11:23.792Z,16.95
2023-05-17T10:14:06.758Z,18.05
2023-05-17T10:16:36.593Z,16.80
2023-05-17T10:19:06.513Z,16.77
2023-05-17T10:21:37.898Z,18.50
2023-05-17T10:24:07.929Z,18.75
2023-05-17T10:26:37.877Z,17.70
2023-05-17T10:29:10.760Z,18.30
2023-05-17T10:31:42.348Z,18.65
2023-05-17T10:34:12.712Z,18.73
2023-05-17T10:36:44.602Z,19.40
2023-05-17T10:39:14.023Z,19.30
2023-05-17T10:41:45.947Z,20.45
2023-05-17T10:44:18.156Z,18.65
2023-05-17T10:46:55.142Z,19.27
2023-05-17T10:49:27.947Z,17.80
2023-05-17T10:51:59.339Z,19.48
2023-05-17T10:54:40.152Z,18.90
2023-05-17T10:57:09.656Z,17.20
2023-05-17T10:59:58.639Z,18.48
2023-05-17T11:02:29.557Z,18.52
2023-05-17T11:04:58.767Z,18.83
2023-05-17T11:07:30.402Z,17.73
2023-05-17T11:10:07.244Z,18.27
2023-05-17T11:12:40.255Z,19.10
2023-05-17T11:15:13.277Z,17.65
2023-05-17T11:17:55.067Z,19.95
2023-05-17T11:20:36.034Z,17.48
2023-05-17T11:23:06.666Z,17.60
2023-05-17T11:25:37.084Z,18.25
2023-05-17T11:28:10.745Z,19.30
2023-05-17T11:30:48.497Z,19.30
2023-05-17T11:33:29.791Z,18.52
2023-05-17T11:36:07.731Z,18.38
2023-05-17T11:38:37.766Z,19.02
2023-05-17T11:43:52.303Z,18.08
2023-05-17T11:46:24.982Z,18.67
2023-05-17T11:48:54.610Z,19.15
2023-05-17T11:51:25.350Z,18.05
2023-05-17T11:53:56.330Z,18.80
2023-05-17T11:56:35.578Z,19.40
2023-05-17T11:59:11.558Z,19.87
2023-05-17T12:01:49.726Z,20.33
2023-05-17T12:04:26.698Z,20.77
2023-05-17T12:06:56.979Z,20.38
2023-05-17T12:09:27.653Z,20.23
2023-05-17T12:11:57.953Z,20.58
2023-05-17T12:14:30.019Z,19.83
2023-05-17T12:17:04.839Z,20.70
2023-05-17T12:19:34.204Z,20.52
2023-05-17T12:22:15.657Z,21.40
2023-05-17T12:24:45.187Z,21.23
2023-05-17T12:27:14.302Z,22.30
2023-05-17T12:29:43.600Z,21.33
2023-05-17T12:32:14.355Z,23.13
2023-05-17T12:34:43.590Z,22.02
2023-05-17T12:37:14.088Z,23.60
2023-05-17T12:39:43.427Z,22.33
2023-05-17T12:42:12.725Z,23.17
2023-05-17T12:44:41.937Z,22.98
2023-05-17T12:47:13.778Z,24.45
2023-05-17T12:49:54.916Z,22.50
2023-05-17T12:52:24.056Z,22.95
2023-05-17T12:54:53.295Z,21.98
2023-05-17T12:57:22.454Z,23.30
2023-05-17T12:59:54.051Z,22.05
2023-05-17T13:02:25.307Z,20.77
2023-05-17T13:04:54.426Z,22.92
2023-05-17T13:07:27.424Z,24.45
2023-05-17T13:09:56.664Z,22.35
2023-05-17T13:12:26.196Z,22.63
2023-05-17T13:14:58.288Z,23.40
2023-05-17T13:17:37.114Z,21.13
2023-05-17T13:20:10.655Z,21.65
2023-05-17T13:22:46.797Z,21.73
2023-05-17T13:25:16.067Z,21.83
2023-05-17T13:27:49.475Z,21.75
2023-05-17T13:30:18.825Z,22.70
2023-05-17T13:32:49.632Z,23.55
2023-05-17T13:35:18.735Z,21.30
2023-05-17T13:37:47.785Z,21.83
2023-05-17T13:40:17.323Z,22.38
2023-05-17T13:42:47.138Z,23.02
2023-05-17T13:45:16.267Z,21.58
2023-05-17T13:47:45.459Z,21.48
2023-05-17T13:50:18.170Z,21.75
2023-05-17T13:52:47.183Z,22.80
2023-05-17T13:55:16.199Z,22.83
2023-05-17T13:57:46.556Z,20.92
2023-05-17T14:00:17.073Z,23.02
2023-05-17T14:02:46.215Z,22.05
2023-05-17T14:05:17.058Z,23.00
2023-05-17T14:07:47.168Z,21.27
2023-05-17T14:10:16.511Z,22.52
2023-05-17T14:12:45.502Z,22.15
2023-05-17T14:15:15.005Z,23.52
2023-05-17T14:17:44.134Z,21.23
2023-05-17T14:20:16.980Z,22.80
2023-05-17T14:22:48.801Z,21.65
2023-05-17T14:25:17.877Z,20.38
2023-05-17T14:27:47.807Z,22.05
2023-05-17T14:30:17.253Z,21.15
2023-05-17T14:32:47.627Z,22.00
2023-05-17T14:35:20.093Z,21.58
2023-05-17T14:37:50.786Z,23.10
2023-05-17T14:40:19.943Z,21.65
2023-05-17T14:42:49.337Z,22.00
2023-05-17T14:45:18.780Z,22.35
2023-05-17T14:47:47.879Z,22.58
2023-05-17T14:50:17.079Z,22.05
2023-05-17T14:52:46.796Z,21.60
2023-05-17T14:55:17.836Z,22.08
2023-05-17T14:57:47.037Z,20.45
2023-05-17T15:00:16.549Z,21.10
2023-05-17T15:02:45.639Z,21.65
2023-05-17T15:05:14.690Z,22.67
2023-05-17T15:07:43.819Z,21.08
2023-05-17T15:10:14.150Z,21.63
2023-05-17T15:12:44.888Z,19.90
2023-05-17T15:15:14.204Z,21.58
2023-05-17T15:17:43.684Z,21.15
2023-05-17T15:20:13.513Z,21.48
2023-05-17T15:22:43.143Z,22.25
2023-05-17T15:25:12.200Z,22.13
2023-05-17T15:27:41.728Z,22.02
2023-05-17T15:30:14.090Z,22.35
2023-05-17T15:32:43.271Z,21.60
2023-05-17T15:35:12.518Z,21.83
2023-05-17T15:37:42.206Z,22.50
2023-05-17T15:40:12.121Z,20.80
2023-05-17T15:42:41.265Z,21.85
2023-05-17T15:45:12.868Z,21.17
2023-05-17T15:47:43.432Z,21.60
2023-05-17T15:50:13.208Z,21.70
2023-05-17T15:52:42.384Z,22.23
2023-05-17T15:55:12.133Z,21.58
2023-05-17T15:57:42.301Z,23.05
2023-05-17T16:00:14.385Z,22.50
2023-05-17T16:02:43.463Z,23.42
2023-05-17T16:05:12.601Z,20.50
2023-05-17T16:07:41.911Z,19.02
2023-05-17T16:10:12.120Z,21.67
2023-05-17T16:12:41.206Z,20.25
2023-05-17T16:15:11.171Z,21.33
2023-05-17T16:17:42.248Z,21.27
2023-05-17T16:20:12.438Z,22.02
2023-05-17T16:22:46.009Z,22.25
2023-05-17T16:25:17.809Z,20.73
2023-05-17T16:27:47.522Z,22.23
2023-05-17T16:30:17.251Z,21.08
2023-05-17T16:32:49.072Z,23.95
2023-05-17T16:35:20.634Z,23.85
2023-05-17T16:37:51.386Z,22.60
2023-05-17T16:40:20.462Z,22.88
2023-05-17T16:42:49.576Z,20.73
2023-05-17T16:45:18.741Z,24.85
2023-05-17T16:47:49.521Z,22.85
2023-05-17T16:50:18.839Z,23.10
2023-05-17T16:52:47.931Z,22.00
2023-05-17T16:55:17.242Z,23.10
2023-05-17T16:57:46.496Z,23.98
2023-05-17T17:00:16.490Z,22.48
2023-05-17T17:02:45.517Z,23.95
2023-05-17T17:05:16.354Z,21.15
2023-05-17T17:07:46.815Z,23.05
2023-05-17T17:10:15.884Z,24.00
2023-05-17T17:12:45.233Z,23.73
2023-05-17T17:15:14.920Z,25.35
2023-05-17T17:17:44.177Z,26.10
2023-05-17T17:20:15.944Z,25.38
2023-05-17T17:22:44.951Z,25.17
2023-05-17T17:25:14.090Z,24.52
2023-05-17T17:27:43.162Z,26.15
2023-05-17T17:30:13.227Z,25.50
2023-05-17T17:32:42.346Z,24.77
2023-05-17T17:35:12.111Z,23.95
2023-05-17T17:37:42.807Z,23.73
2023-05-17T17:40:13.570Z,24.27
2023-05-17T17:42:42.581Z,23.80
2023-05-17T17:45:12.475Z,23.90
2023-05-17T17:47:42.955Z,24.20
2023-05-17T17:50:12.416Z,23.92
2023-05-17T17:52:43.274Z,24.40
2023-05-17T17:55:13.884Z,26.25
2023-05-17T17:57:42.901Z,25.05
2023-05-17T18:00:14.023Z,24.92
2023-05-17T18:02:43.110Z,24.27
2023-05-17T18:05:12.854Z,24.50
2023-05-17T18:07:43.585Z,25.35
2023-05-17T18:10:13.079Z,24.85
2023-05-17T18:12:42.156Z,23.08
2023-05-17T18:15:12.425Z,23.30
2023-05-17T18:17:42.147Z,23.95
2023-05-17T18:20:11.649Z,23.15
2023-05-17T18:22:40.801Z,22.30
2023-05-17T18:25:12.040Z,24.92
2023-05-17T18:27:42.325Z,23.23
2023-05-17T18:30:12.682Z,21.60
2023-05-17T18:32:42.108Z,24.15
2023-05-17T18:35:11.637Z,23.83
2023-05-17T18:37:40.696Z,23.77
2023-05-17T18:40:15.262Z,23.02
2023-05-17T18:42:44.464Z,22.80
2023-05-17T18:45:13.535Z,25.15
2023-05-17T18:47:42.757Z,24.92
2023-05-17T18:50:12.259Z,25.15
2023-05-17T18:52:41.615Z,25.33
2023-05-17T18:55:12.663Z,23.33
2023-05-17T18:57:43.214Z,26.05
2023-05-17T19:00:13.136Z,23.25
2023-05-17T19:02:42.291Z,23.75
2023-05-17T19:05:11.641Z,22.95
2023-05-17T19:07:40.671Z,22.98
2023-05-17T19:10:10.638Z,22.23
2023-05-17T19:12:42.585Z,22.80
2023-05-17T19:15:13.119Z,23.92
2023-05-17T19:17:42.547Z,23.88
2023-05-17T19:20:12.347Z,21.83
2023-05-17T19:22:41.468Z,24.23
2023-05-17T19:25:10.864Z,26.10
2023-05-17T19:27:43.242Z,21.15
2023-05-17T19:30:14.003Z,22.80
2023-05-17T19:32:43.191Z,21.48
2023-05-17T19:35:12.559Z,22.20
2023-05-17T19:37:41.827Z,22.27
2023-05-17T19:40:12.201Z,20.52
2023-05-17T19:42:43.179Z,20.05
2023-05-17T19:45:12.966Z,20.75
2023-05-17T19:47:42.450Z,20.95
2023-05-17T19:50:15.249Z,21.38
2023-05-17T19:52:44.529Z,20.17
2023-05-17T19:55:16.671Z,20.48
2023-05-17T19:57:48.104Z,19.63
2023-05-17T20:00:18.653Z,22.80
2023-05-17T20:02:48.336Z,20.90
2023-05-17T20:05:20.471Z,19.95
2023-05-17T20:07:49.579Z,17.58
2023-05-17T20:10:18.688Z,19.13
2023-05-17T20:12:49.406Z,17.50
2023-05-17T20:15:18.472Z,18.65
2023-05-17T20:17:47.857Z,17.38
2023-05-17T20:20:17.100Z,20.90
2023-05-17T20:22:47.181Z,16.25
2023-05-17T20:25:16.264Z,18.13
2023-05-17T20:27:45.569Z,17.58
2023-05-17T20:30:16.558Z,18.55
2023-05-17T20:32:45.750Z,17.38
2023-05-17T20:35:14.924Z,18.63
2023-05-17T20:37:43.986Z,16.02
2023-05-17T20:40:13.482Z,15.15
2023-05-17T20:42:43.597Z,14.98
2023-05-17T20:45:14.645Z,14.98
2023-05-17T20:47:45.679Z,14.80
2023-05-17T20:50:16.252Z,16.88
2023-05-17T20:52:45.318Z,15.60
2023-05-17T20:55:14.445Z,15.95
2023-05-17T20:57:43.744Z,13.38
2023-05-17T21:00:13.526Z,13.95
2023-05-17T21:02:42.659Z,15.88
2023-05-17T21:05:13.524Z,16.50
2023-05-17T21:07:42.571Z,15.73
2023-05-17T21:10:11.977Z,15.30
2023-05-17T21:12:41.194Z,15.07
2023-05-17T21:15:30.702Z,14.82
2023-05-17T21:18:00.021Z,16.35
2023-05-17T21:20:30.913Z,14.85
2023-05-17T21:23:00.173Z,16.55
2023-05-17T21:25:29.733Z,14.63
2023-05-17T21:27:59.015Z,14.43
2023-05-17T21:30:28.592Z,14.38
2023-05-17T21:32:57.891Z,14.77
2023-05-17T21:35:27.115Z,13.43
2023-05-17T21:37:57.868Z,13.15
2023-05-17T21:40:27.197Z,13.68
2023-05-17T21:42:56.350Z,13.98
2023-05-17T21:45:25.900Z,13.75
2023-05-17T21:47:55.008Z,12.93
2023-05-17T21:50:24.205Z,10.90
2023-05-17T21:52:53.310Z,12.63
2023-05-17T21:55:24.245Z,13.13
2023-05-17T21:57:53.443Z,12.77
2023-05-17T22:00:22.570Z,11.82
2023-05-17T22:02:51.847Z,12.13
2023-05-17T22:05:20.933Z,12.43
2023-05-17T22:07:50.055Z,12.52
2023-05-17T22:10:19.193Z,11.52
2023-05-17T22:12:51.163Z,13.68
2023-05-17T22:15:20.803Z,11.35
2023-05-17T22:17:52.958Z,12.88
2023-05-17T22:20:24.379Z,11.15
2023-05-17T22:22:53.479Z,11.50
2023-05-17T22:25:22.618Z,11.55
2023-05-17T22:27:53.307Z,12.32
2023-05-17T22:30:22.550Z,13.23
2023-05-17T22:32:55.388Z,11.70
2023-05-17T22:35:25.982Z,11.88
2023-05-17T22:37:55.035Z,10.90
2023-05-17T22:40:25.965Z,10.95
2023-05-17T22:43:00.522Z,10.68
2023-05-17T22:45:33.759Z,11.10
2023-05-17T22:48:10.734Z,12.80
2023-05-17T22:50:39.888Z,10.55
2023-05-17T22:53:08.979Z,10.30
2023-05-17T22:55:38.065Z,11.27
2023-05-17T22:58:08.821Z,11.65
2023-05-17T23:00:37.990Z,11.13
2023-05-17T23:03:07.026Z,9.55
2023-05-17T23:05:37.595Z,10.38
2023-05-17T23:08:10.774Z,9.07
2023-05-17T23:10:40.056Z,10.02
2023-05-17T23:13:10.755Z,9.10
2023-05-17T23:15:41.445Z,10.13
2023-05-17T23:18:10.456Z,9.90
2023-05-17T23:20:39.554Z,9.98
2023-05-17T23:23:09.314Z,9.25
2023-05-17T23:25:38.378Z,9.10
2023-05-17T23:28:07.835Z,10.43
2023-05-17T23:30:40.731Z,8.85
2023-05-17T23:33:09.769Z,9.80
2023-05-17T23:35:38.819Z,8.55
2023-05-17T23:38:08.208Z,8.95
2023-05-17T23:40:37.973Z,9.48
2023-05-17T23:43:09.589Z,8.48
2023-05-17T23:45:40.244Z,8.88
2023-05-17T23:48:10.706Z,8.98
2023-05-17T23:50:40.957Z,8.07
2023-05-17T23:53:10.364Z,7.88
2023-05-17T23:55:39.653Z,6.80
2023-05-17T23:58:08.715Z,7.47
